Time;durP1;ratioP1;P1;durP2;ratioP2;P2;SDS_P1;SDS_P2;PMS_P1;PMS_P2;Temp;Humidity;BMP_temperature;BMP_pressure;BME280_temperature;BME280_humidity;BME280_pressure;Samples;Min_cycle;Max_cycle;Signal;HPM_P1;HPM_P2
2022/01/31 00:01:49;;;;;;;20.85;8.88;;;4.20;99.90;;;;;;5034596;28;89631;-35
2022/01/31 00:04:14;;;;;;;22.20;8.38;;;4.20;99.90;;;;;;5034748;28;89500;-32
2022/01/31 00:06:42;;;;;;;20.52;7.28;;;4.20;99.90;;;;;;5035123;28;88469;-34
2022/01/31 00:09:14;;;;;;;21.50;7.72;;;4.30;99.90;;;;;;5034720;28;90431;-32
2022/01/31 00:11:42;;;;;;;28.52;9.00;;;4.30;99.90;;;;;;5016365;28;89327;-31
2022/01/31 00:14:16;;;;;;;19.42;7.45;;;4.20;99.90;;;;;;5035017;28;89382;-31
2022/01/31 00:16:41;;;;;;;24.17;7.85;;;4.20;99.90;;;;;;5035192;28;87519;-31
2022/01/31 00:19:07;;;;;;;19.02;8.15;;;4.20;99.90;;;;;;5034446;28;90235;-30
2022/01/31 00:21:33;;;;;;;16.98;8.43;;;4.30;99.90;;;;;;5016453;28;91615;-31
2022/01/31 00:23:59;;;;;;;38.83;8.98;;;4.30;99.90;;;;;;5034105;28;90548;-30
2022/01/31 00:26:24;;;;;;;25.20;8.80;;;4.20;99.90;;;;;;5034744;28;88916;-34
2022/01/31 00:28:50;;;;;;;22.60;8.52;;;4.20;99.90;;;;;;5034430;28;92350;-37
2022/01/31 00:31:16;;;;;;;28.48;9.05;;;4.20;99.90;;;;;;5033985;28;89768;-31
2022/01/31 00:33:41;;;;;;;18.75;8.95;;;4.20;99.90;;;;;;5034625;28;89514;-31
2022/01/31 00:36:07;;;;;;;18.92;8.80;;;4.40;99.90;;;;;;5034677;28;88013;-31
2022/01/31 00:38:33;;;;;;;19.52;9.13;;;4.30;99.90;;;;;;5034139;28;89708;-32
2022/01/31 00:40:58;;;;;;;25.00;8.32;;;4.30;99.90;;;;;;5034193;28;89882;-30
2022/01/31 00:43:24;;;;;;;21.45;8.45;;;4.20;99.90;;;;;;5034052;28;88639;-34
2022/01/31 00:46:01;;;;;;;18.75;9.40;;;4.20;99.90;;;;;;5033980;28;88232;-32
2022/01/31 00:48:33;;;;;;;42.23;11.00;;;4.20;99.90;;;;;;5034083;28;90340;-32
2022/01/31 00:50:59;;;;;;;17.15;8.30;;;4.10;99.90;;;;;;5033690;28;91050;-33
2022/01/31 00:53:24;;;;;;;18.65;8.60;;;4.20;99.90;;;;;;5034241;28;89712;-32
2022/01/31 00:55:50;;;;;;;26.48;9.95;;;4.20;99.90;;;;;;5034519;28;87908;-30
2022/01/31 00:58:16;;;;;;;16.85;9.45;;;4.20;99.90;;;;;;5033947;28;89993;-31
2022/01/31 01:00:41;;;;;;;27.65;10.18;;;4.20;99.90;;;;;;5033801;28;96247;-32
2022/01/31 01:03:07;;;;;;;19.88;9.60;;;4.20;99.90;;;;;;5033564;28;89603;-31
2022/01/31 01:05:32;;;;;;;12.02;8.23;;;4.20;99.90;;;;;;5034141;28;88493;-33
2022/01/31 01:07:58;;;;;;;27.88;9.35;;;4.20;99.90;;;;;;5034124;28;91103;-31
2022/01/31 01:10:23;;;;;;;21.27;9.95;;;4.20;99.90;;;;;;5033376;28;90644;-31
2022/01/31 01:12:49;;;;;;;19.02;10.02;;;4.20;99.90;;;;;;5033029;28;90479;-34
2022/01/31 01:15:15;;;;;;;22.25;9.32;;;4.20;99.90;;;;;;5032919;28;87796;-31
2022/01/31 01:17:42;;;;;;;17.92;9.32;;;4.40;99.90;;;;;;5033922;28;90164;-31
2022/01/31 01:20:09;;;;;;;25.65;10.15;;;4.40;99.90;;;;;;5033487;28;90696;-31
2022/01/31 01:22:34;;;;;;;31.13;11.32;;;4.20;99.90;;;;;;5033083;28;89835;-31
2022/01/31 01:25:03;;;;;;;14.45;8.45;;;4.30;99.90;;;;;;5032699;28;88019;-30
2022/01/31 01:27:29;;;;;;;15.70;9.88;;;4.30;99.90;;;;;;5016200;28;90356;-31
2022/01/31 01:29:55;;;;;;;16.05;10.25;;;4.30;99.90;;;;;;5033811;28;88700;-32
2022/01/31 01:32:22;;;;;;;25.23;10.68;;;4.30;99.90;;;;;;5033428;28;89461;-31
2022/01/31 01:34:48;;;;;;;18.00;10.45;;;4.30;99.90;;;;;;5032019;28;89605;-30
2022/01/31 01:37:13;;;;;;;27.55;12.15;;;4.20;99.90;;;;;;5032891;28;90351;-32
2022/01/31 01:39:41;;;;;;;22.52;10.48;;;4.20;99.90;;;;;;5033039;28;89591;-33
2022/01/31 01:42:07;;;;;;;16.55;11.13;;;4.20;99.90;;;;;;5032952;28;89962;-32
2022/01/31 01:44:47;;;;;;;20.67;10.48;;;4.20;99.90;;;;;;5033070;28;87800;-32
2022/01/31 01:47:18;;;;;;;16.73;10.77;;;4.20;99.90;;;;;;5032810;28;90889;-32
2022/01/31 01:49:44;;;;;;;16.27;11.98;;;4.10;99.90;;;;;;5032226;28;89804;-31
2022/01/31 01:52:10;;;;;;;23.92;11.88;;;4.10;99.90;;;;;;5033032;28;89526;-31
2022/01/31 01:54:36;;;;;;;27.65;13.60;;;4.10;99.90;;;;;;5033126;28;88378;-34
2022/01/31 01:57:03;;;;;;;24.08;13.55;;;4.10;99.90;;;;;;5032786;28;90247;-30
2022/01/31 01:59:33;;;;;;;20.00;14.32;;;4.10;99.90;;;;;;5032409;28;90680;-31
2022/01/31 02:01:58;;;;;;;23.45;14.25;;;4.00;99.90;;;;;;5032229;28;90291;-30
2022/01/31 02:04:26;;;;;;;21.70;15.05;;;3.90;99.90;;;;;;5032879;28;87759;-31
2022/01/31 02:06:52;;;;;;;31.58;15.23;;;3.90;99.90;;;;;;5032264;28;88949;-31
2022/01/31 02:09:22;;;;;;;21.25;15.85;;;3.80;99.90;;;;;;5032595;28;89734;-30
2022/01/31 02:11:48;;;;;;;26.35;13.77;;;3.70;99.90;;;;;;5014636;28;89950;-31
2022/01/31 02:14:14;;;;;;;23.38;14.88;;;3.60;99.90;;;;;;5032459;28;88305;-31
2022/01/31 02:16:39;;;;;;;23.80;16.60;;;3.80;99.90;;;;;;5032958;28;90420;-33
2022/01/31 02:19:06;;;;;;;24.23;16.20;;;3.70;99.90;;;;;;5032527;28;90343;-31
2022/01/31 02:21:32;;;;;;;27.77;15.93;;;3.60;99.90;;;;;;5032617;28;89641;-33
2022/01/31 02:23:58;;;;;;;20.38;15.50;;;3.50;99.90;;;;;;5033948;27;88461;-31
2022/01/31 02:26:24;;;;;;;22.45;16.40;;;3.40;99.90;;;;;;5035644;28;90905;-31
2022/01/31 02:28:50;;;;;;;20.30;14.15;;;3.40;99.90;;;;;;5035878;28;89428;-31
2022/01/31 02:31:16;;;;;;;17.38;14.93;;;3.30;99.90;;;;;;5035563;28;89675;-30
2022/01/31 02:33:42;;;;;;;26.42;17.02;;;3.30;99.90;;;;;;5035886;28;87961;-31
2022/01/31 02:36:08;;;;;;;28.80;16.98;;;3.30;99.90;;;;;;5035563;28;90554;-30
2022/01/31 02:38:33;;;;;;;28.27;18.10;;;3.20;99.90;;;;;;5035256;28;89425;-30
2022/01/31 02:40:59;;;;;;;24.38;15.98;;;3.20;99.90;;;;;;5035577;28;89519;-31
2022/01/31 02:43:28;;;;;;;23.95;18.02;;;3.30;99.90;;;;;;5034052;28;89773;-33
2022/01/31 02:45:54;;;;;;;24.70;16.95;;;3.20;99.90;;;;;;5035549;28;90323;-31
2022/01/31 02:48:23;;;;;;;31.65;19.08;;;3.10;99.90;;;;;;5034744;28;90599;-30
2022/01/31 02:50:50;;;;;;;37.20;18.70;;;3.10;99.90;;;;;;5034994;28;89462;-33
2022/01/31 02:53:31;;;;;;;28.50;18.10;;;3.10;99.90;;;;;;5034957;28;87677;-30
2022/01/31 02:55:59;;;;;;;27.17;16.48;;;3.10;99.90;;;;;;5035294;28;90265;-33
2022/01/31 02:58:27;;;;;;;24.57;15.50;;;3.20;99.90;;;;;;5035291;28;89607;-32
2022/01/31 03:00:55;;;;;;;26.88;16.02;;;3.30;99.90;;;;;;5034960;28;92617;-31
2022/01/31 03:03:21;;;;;;;22.70;15.45;;;3.30;99.90;;;;;;5035440;28;87403;-32
2022/01/31 03:05:47;;;;;;;25.00;15.55;;;3.30;99.90;;;;;;5033440;28;90385;-31
2022/01/31 03:08:12;;;;;;;17.45;14.65;;;3.30;99.90;;;;;;5035331;28;89720;-30
2022/01/31 03:10:38;;;;;;;18.00;13.30;;;3.30;99.90;;;;;;5035310;28;89915;-32
2022/01/31 03:13:04;;;;;;;22.08;15.05;;;3.30;99.90;;;;;;5049985;27;88125;-33
2022/01/31 03:15:30;;;;;;;14.00;12.05;;;3.30;99.90;;;;;;5035168;28;91043;-32
2022/01/31 03:17:56;;;;;;;22.30;14.70;;;3.40;99.90;;;;;;5035333;28;88920;-31
2022/01/31 03:20:23;;;;;;;17.50;12.10;;;3.30;99.90;;;;;;5034717;28;89348;-33
2022/01/31 03:22:50;;;;;;;14.75;12.90;;;3.30;99.90;;;;;;5035504;28;88578;-33
2022/01/31 03:25:16;;;;;;;12.55;10.07;;;3.30;99.90;;;;;;5034420;28;90125;-31
2022/01/31 03:27:43;;;;;;;13.15;9.05;;;3.30;99.90;;;;;;5034902;28;89746;-31
2022/01/31 03:30:16;;;;;;;14.70;10.02;;;3.30;99.90;;;;;;5035047;28;89537;-30
2022/01/31 03:32:41;;;;;;;11.65;9.90;;;3.40;99.90;;;;;;5035177;28;87647;-33
2022/01/31 03:35:08;;;;;;;10.55;8.30;;;3.30;99.90;;;;;;5034261;28;90315;-31
2022/01/31 03:37:34;;;;;;;11.70;10.30;;;3.30;99.90;;;;;;5034794;28;90721;-33
2022/01/31 03:40:00;;;;;;;11.38;10.18;;;3.30;99.90;;;;;;5034471;28;90416;-36
2022/01/31 03:42:26;;;;;;;13.32;11.02;;;3.30;99.90;;;;;;5034925;28;87719;-31
2022/01/31 03:44:53;;;;;;;13.93;11.23;;;3.20;99.90;;;;;;5034724;28;90669;-32
2022/01/31 03:47:23;;;;;;;13.77;12.13;;;3.20;99.90;;;;;;5034666;28;89236;-30
2022/01/31 03:49:50;;;;;;;17.48;11.32;;;3.30;99.90;;;;;;5034314;28;89800;-30
2022/01/31 03:52:16;;;;;;;11.05;10.07;;;3.30;99.90;;;;;;5034343;28;87833;-31
2022/01/31 03:54:42;;;;;;;12.13;10.20;;;3.30;99.90;;;;;;5034820;28;89496;-31
2022/01/31 03:57:08;;;;;;;11.13;10.00;;;3.30;99.90;;;;;;5034217;28;89326;-30
2022/01/31 03:59:33;;;;;;;12.20;11.00;;;3.40;99.90;;;;;;5034400;28;89682;-34
2022/01/31 04:01:59;;;;;;;17.88;11.93;;;3.40;99.90;;;;;;5034282;28;88794;-31
2022/01/31 04:04:25;;;;;;;12.73;11.45;;;3.40;99.90;;;;;;5033650;28;90120;-32
2022/01/31 04:06:50;;;;;;;13.77;11.95;;;3.40;99.90;;;;;;5034191;28;89444;-31
2022/01/31 04:09:16;;;;;;;19.23;11.20;;;3.40;99.90;;;;;;5016213;28;89549;-30
2022/01/31 04:11:43;;;;;;;12.85;11.55;;;3.40;99.90;;;;;;5033822;28;87685;-34
2022/01/31 04:14:09;;;;;;;13.52;9.85;;;3.50;99.90;;;;;;5033804;28;88850;-31
2022/01/31 04:16:34;;;;;;;12.48;11.23;;;3.50;99.90;;;;;;5035297;28;89045;-31
2022/01/31 04:19:00;;;;;;;16.92;12.70;;;3.60;99.90;;;;;;5034101;28;89322;-31
2022/01/31 04:21:26;;;;;;;21.60;12.65;;;3.60;99.90;;;;;;5033756;28;88062;-33
2022/01/31 04:23:52;;;;;;;17.98;11.43;;;3.70;99.90;;;;;;5034152;28;90588;-31
2022/01/31 04:26:18;;;;;;;18.00;13.52;;;3.70;99.90;;;;;;5032929;28;90289;-32
2022/01/31 04:28:46;;;;;;;14.65;10.75;;;3.80;99.90;;;;;;5034176;28;89246;-31
2022/01/31 04:33:41;;;;;;;18.10;11.07;;;3.90;99.90;;;;;;5033894;28;90328;-32
2022/01/31 04:36:09;;;;;;;14.25;9.90;;;4.00;99.90;;;;;;5033456;28;89724;-30
2022/01/31 04:38:35;;;;;;;15.43;7.43;;;4.00;99.90;;;;;;5034641;28;88370;-31
2022/01/31 04:41:01;;;;;;;15.82;7.47;;;4.20;99.90;;;;;;5034624;28;87832;-33
2022/01/31 04:43:26;;;;;;;15.18;5.85;;;4.40;99.90;;;;;;5034586;28;88874;-32
2022/01/31 04:45:54;;;;;;;15.30;4.60;;;4.60;99.90;;;;;;5033964;27;90085;-31
2022/01/31 04:48:20;;;;;;;11.02;3.97;;;4.70;99.90;;;;;;5034056;28;89198;-30
2022/01/31 04:50:47;;;;;;;7.50;2.53;;;4.70;99.90;;;;;;5033835;28;88043;-33
2022/01/31 04:53:13;;;;;;;7.45;3.10;;;4.80;99.90;;;;;;5034153;28;90064;-30
2022/01/31 04:55:40;;;;;;;5.90;2.83;;;4.80;99.90;;;;;;5034021;28;89913;-31
2022/01/31 04:58:07;;;;;;;18.27;3.25;;;4.70;99.90;;;;;;5033872;28;88573;-34
2022/01/31 05:00:33;;;;;;;5.10;2.22;;;4.70;99.90;;;;;;5033792;28;87587;-32
2022/01/31 05:02:58;;;;;;;9.85;2.95;;;4.60;99.90;;;;;;5015981;28;90139;-32
2022/01/31 05:05:24;;;;;;;6.88;2.72;;;4.60;99.90;;;;;;5033953;28;89997;-33
2022/01/31 05:07:53;;;;;;;10.05;3.75;;;4.60;99.90;;;;;;5034593;28;88129;-33
2022/01/31 05:10:19;;;;;;;13.50;4.25;;;4.60;99.90;;;;;;5034053;28;87673;-31
2022/01/31 05:12:44;;;;;;;16.25;3.63;;;4.60;99.90;;;;;;5033869;28;89751;-31
2022/01/31 05:15:10;;;;;;;15.40;5.13;;;4.60;99.90;;;;;;5032865;28;91458;-30
2022/01/31 05:17:36;;;;;;;18.23;5.32;;;4.60;99.90;;;;;;5034185;28;90325;-31
2022/01/31 05:20:01;;;;;;;13.85;3.90;;;4.60;99.90;;;;;;5034162;28;88562;-34
2022/01/31 05:22:27;;;;;;;18.42;5.25;;;4.60;99.90;;;;;;5033547;28;90415;-32
2022/01/31 05:24:52;;;;;;;11.25;4.55;;;4.50;99.90;;;;;;5033732;28;89655;-30
2022/01/31 05:27:18;;;;;;;10.32;4.25;;;4.60;99.90;;;;;;5033678;28;89249;-31
2022/01/31 05:29:44;;;;;;;17.45;5.38;;;4.70;99.90;;;;;;5032406;28;87748;-32
2022/01/31 05:32:09;;;;;;;26.02;5.88;;;4.70;99.90;;;;;;5033078;28;90603;-33
2022/01/31 05:34:35;;;;;;;21.38;5.13;;;4.80;99.90;;;;;;5033647;28;91020;-32
2022/01/31 05:37:00;;;;;;;11.23;4.82;;;4.80;99.90;;;;;;5033495;28;89430;-31
2022/01/31 05:39:26;;;;;;;19.80;5.78;;;4.80;99.90;;;;;;5033132;28;88617;-31
2022/01/31 05:41:56;;;;;;;22.05;5.88;;;4.70;99.90;;;;;;5034017;28;88512;-32
2022/01/31 05:44:23;;;;;;;14.85;5.47;;;4.80;99.90;;;;;;5033125;28;89719;-32
2022/01/31 05:46:48;;;;;;;29.52;5.72;;;4.80;99.90;;;;;;5033444;28;90087;-30
2022/01/31 05:49:14;;;;;;;17.65;5.70;;;4.80;99.90;;;;;;5032962;28;87722;-32
2022/01/31 05:51:53;;;;;;;19.60;5.57;;;4.80;99.90;;;;;;5033593;28;90372;-30
2022/01/31 05:54:20;;;;;;;21.95;5.68;;;4.80;99.90;;;;;;5033180;28;89623;-32
2022/01/31 05:56:46;;;;;;;23.55;5.93;;;4.80;99.90;;;;;;5033412;28;90196;-30
2022/01/31 05:59:12;;;;;;;11.95;3.78;;;4.80;99.90;;;;;;5035909;27;87984;-31
2022/01/31 06:01:39;;;;;;;15.48;4.35;;;4.90;99.90;;;;;;5036991;28;90525;-34
2022/01/31 06:04:06;;;;;;;10.07;3.03;;;5.00;99.90;;;;;;5035912;28;90632;-31
2022/01/31 06:06:32;;;;;;;6.28;2.83;;;5.00;99.90;;;;;;5045831;27;89530;-31
2022/01/31 06:08:57;;;;;;;9.55;2.15;;;4.90;99.90;;;;;;5057249;27;88662;-33
2022/01/31 06:11:25;;;;;;;8.13;1.98;;;4.90;99.90;;;;;;5053281;27;90334;-31
2022/01/31 06:13:51;;;;;;;12.82;2.22;;;4.80;99.90;;;;;;5044905;27;89140;-31
2022/01/31 06:16:18;;;;;;;6.30;1.88;;;4.70;99.90;;;;;;5056637;27;89519;-31
2022/01/31 06:18:44;;;;;;;3.45;1.98;;;4.70;99.90;;;;;;5057276;27;87986;-32
2022/01/31 06:21:12;;;;;;;9.75;1.90;;;4.60;99.90;;;;;;5056774;27;90203;-32
2022/01/31 06:23:38;;;;;;;9.90;1.70;;;4.60;99.90;;;;;;5056879;27;90222;-31
2022/01/31 06:26:04;;;;;;;4.97;1.08;;;4.60;99.90;;;;;;5056780;27;90145;-31
2022/01/31 06:28:29;;;;;;;5.25;1.80;;;4.50;99.90;;;;;;5056113;27;87979;-33
2022/01/31 06:30:55;;;;;;;8.93;1.67;;;4.50;99.90;;;;;;5051242;27;90334;-31
2022/01/31 06:33:21;;;;;;;6.22;1.50;;;4.50;99.90;;;;;;5002361;27;88212;-32
2022/01/31 06:35:47;;;;;;;3.00;1.42;;;4.50;99.90;;;;;;5056627;27;89528;-34
2022/01/31 06:38:13;;;;;;;9.32;2.55;;;4.50;99.90;;;;;;5057034;27;87903;-31
2022/01/31 06:40:39;;;;;;;3.40;1.65;;;4.50;99.90;;;;;;5056301;27;90512;-30
2022/01/31 06:43:05;;;;;;;6.82;2.00;;;4.50;99.90;;;;;;5056930;27;89607;-35
2022/01/31 06:45:31;;;;;;;11.85;2.47;;;4.50;99.90;;;;;;5056294;27;89966;-31
2022/01/31 06:47:57;;;;;;;8.82;2.22;;;4.40;99.90;;;;;;5057234;27;88988;-32
2022/01/31 06:50:23;;;;;;;7.22;1.98;;;4.40;99.90;;;;;;5056010;27;90182;-32
2022/01/31 06:52:53;;;;;;;7.25;2.22;;;4.40;99.90;;;;;;5056198;27;90631;-30
2022/01/31 06:55:20;;;;;;;4.40;1.90;;;4.40;99.90;;;;;;5056409;27;91558;-31
2022/01/31 06:57:51;;;;;;;4.82;2.38;;;4.50;99.90;;;;;;5005290;27;87649;-30
2022/01/31 07:00:18;;;;;;;4.97;2.70;;;4.50;99.90;;;;;;5047578;27;89155;-32
2022/01/31 07:02:48;;;;;;;4.97;2.28;;;4.50;99.90;;;;;;5038169;27;89548;-30
2022/01/31 07:05:14;;;;;;;6.45;2.40;;;4.40;99.90;;;;;;5017210;28;89504;-31
2022/01/31 07:07:40;;;;;;;11.23;2.30;;;4.60;99.90;;;;;;5036385;28;88042;-32
2022/01/31 07:10:07;;;;;;;7.72;2.17;;;4.60;99.90;;;;;;5035945;28;89073;-31
2022/01/31 07:12:36;;;;;;;12.38;2.83;;;4.70;99.90;;;;;;5035392;28;90091;-30
2022/01/31 07:15:05;;;;;;;16.90;3.13;;;4.70;99.90;;;;;;5035679;28;89794;-32
2022/01/31 07:17:30;;;;;;;13.07;3.00;;;4.70;99.90;;;;;;5035323;28;88717;-31
2022/01/31 07:19:57;;;;;;;8.77;2.90;;;4.70;99.90;;;;;;5017738;28;90286;-30
2022/01/31 07:22:29;;;;;;;12.00;2.53;;;4.70;99.90;;;;;;5035792;28;89461;-31
2022/01/31 07:25:34;;;;;;;10.25;1.85;;;4.70;99.90;;;;;;5035476;28;88734;-31
2022/01/31 07:27:46;;;;;;;9.05;2.70;;;4.70;99.90;;;;;;5031506;28;87619;-31
2022/01/31 07:30:12;;;;;;;6.75;3.38;;;4.80;99.90;;;;;;5034973;28;90531;-37
2022/01/31 07:32:41;;;;;;;10.70;3.65;;;4.80;99.90;;;;;;5035508;28;89966;-33
2022/01/31 07:35:10;;;;;;;8.50;2.20;;;4.80;99.90;;;;;;5035546;28;88500;-30
2022/01/31 07:37:36;;;;;;;11.48;2.83;;;4.80;99.90;;;;;;5035563;28;88262;-30
2022/01/31 07:40:03;;;;;;;9.98;3.03;;;4.90;99.90;;;;;;5035332;28;90271;-32
2022/01/31 07:42:29;;;;;;;7.88;3.03;;;5.00;99.90;;;;;;5034374;28;90859;-33
2022/01/31 07:44:54;;;;;;;5.35;2.75;;;5.00;99.90;;;;;;5035294;27;89226;-32
2022/01/31 07:47:20;;;;;;;7.10;2.55;;;5.00;99.90;;;;;;5034803;28;87581;-31
2022/01/31 07:49:46;;;;;;;10.15;2.70;;;4.90;99.90;;;;;;5034632;28;90322;-32
2022/01/31 07:52:12;;;;;;;12.57;2.75;;;4.90;99.90;;;;;;5035226;28;88782;-31
2022/01/31 07:54:39;;;;;;;6.55;2.35;;;5.00;99.90;;;;;;5034997;28;89770;-32
2022/01/31 07:57:04;;;;;;;4.80;2.15;;;4.90;99.90;;;;;;5035543;28;88548;-34
2022/01/31 07:59:30;;;;;;;5.45;1.92;;;4.90;99.90;;;;;;5017155;28;90249;-31
2022/01/31 08:01:56;;;;;;;8.30;1.85;;;4.90;99.90;;;;;;5035277;28;89710;-30
2022/01/31 08:04:21;;;;;;;9.18;1.55;;;4.90;99.90;;;;;;5034682;28;89871;-30
2022/01/31 08:06:47;;;;;;;3.45;1.85;;;4.90;99.90;;;;;;5034326;28;91878;-32
2022/01/31 08:09:13;;;;;;;12.82;2.30;;;4.90;99.90;;;;;;5031939;28;90217;-33
2022/01/31 08:11:38;;;;;;;8.10;2.40;;;4.80;99.90;;;;;;5033367;27;89618;-30
2022/01/31 08:14:09;;;;;;;6.07;1.92;;;4.80;99.90;;;;;;5034535;27;89611;-32
2022/01/31 08:16:36;;;;;;;7.05;2.05;;;4.80;99.90;;;;;;5051017;27;87564;-32
2022/01/31 08:19:05;;;;;;;6.03;1.65;;;4.80;99.90;;;;;;5038290;27;90141;-31
2022/01/31 08:21:30;;;;;;;10.43;1.77;;;4.80;99.90;;;;;;5031584;27;88250;-31
2022/01/31 08:23:56;;;;;;;7.20;2.25;;;4.90;99.90;;;;;;5032495;28;89093;-31
2022/01/31 08:26:22;;;;;;;5.18;2.22;;;4.90;99.90;;;;;;5032444;28;88017;-31
2022/01/31 08:29:02;;;;;;;8.30;3.47;;;4.90;99.90;;;;;;5032569;27;89680;-33
2022/01/31 08:31:29;;;;;;;7.53;2.47;;;4.90;99.90;;;;;;5036433;27;91140;-31
2022/01/31 08:36:30;;;;;;;5.93;2.17;;;5.00;99.90;;;;;;5047038;27;87841;-35
2022/01/31 08:38:56;;;;;;;7.65;2.28;;;5.00;99.90;;;;;;5044529;27;90742;-33
2022/01/31 08:41:24;;;;;;;6.43;2.17;;;5.00;99.90;;;;;;5052355;27;89751;-32
2022/01/31 08:43:50;;;;;;;4.13;2.03;;;5.00;99.90;;;;;;5052843;27;89572;-31
2022/01/31 08:46:17;;;;;;;6.68;2.40;;;5.00;99.90;;;;;;5051943;27;88233;-32
2022/01/31 08:48:43;;;;;;;11.35;2.38;;;5.10;99.90;;;;;;5051800;27;89907;-31
2022/01/31 08:51:11;;;;;;;5.03;2.45;;;5.20;99.90;;;;;;5052565;27;88886;-33
2022/01/31 08:53:39;;;;;;;6.65;2.65;;;5.20;99.90;;;;;;5051640;27;89512;-34
2022/01/31 08:56:10;;;;;;;9.27;2.10;;;5.20;99.90;;;;;;5052000;27;88322;-34
2022/01/31 08:58:42;;;;;;;10.32;2.83;;;5.30;99.90;;;;;;5052139;27;90436;-30
2022/01/31 09:01:09;;;;;;;12.43;2.55;;;5.30;99.90;;;;;;5052460;27;89157;-31
2022/01/31 09:06:04;;;;;;;7.75;2.72;;;5.40;99.90;;;;;;5052127;27;87793;-30
2022/01/31 09:08:30;;;;;;;7.60;2.10;;;5.40;99.90;;;;;;5051892;27;89144;-31
2022/01/31 09:10:56;;;;;;;10.80;2.97;;;5.40;99.90;;;;;;5051757;27;90536;-31
2022/01/31 09:13:22;;;;;;;12.30;2.35;;;5.50;99.90;;;;;;5052008;27;89147;-30
2022/01/31 09:15:47;;;;;;;11.63;2.38;;;5.50;99.90;;;;;;5051799;27;87500;-31
2022/01/31 09:18:13;;;;;;;12.20;2.65;;;5.60;99.90;;;;;;5052316;27;89147;-35
2022/01/31 09:20:39;;;;;;;4.72;1.75;;;5.70;99.90;;;;;;5051150;27;90948;-31
2022/01/31 09:23:05;;;;;;;4.35;2.22;;;5.70;99.90;;;;;;5052168;27;90327;-30
2022/01/31 09:25:32;;;;;;;6.60;2.00;;;5.80;99.90;;;;;;5051494;27;87806;-30
2022/01/31 09:27:59;;;;;;;6.95;2.60;;;6.00;99.90;;;;;;5051412;27;90145;-32
2022/01/31 09:30:27;;;;;;;8.40;2.55;;;6.00;99.90;;;;;;5051359;27;89869;-32
2022/01/31 09:32:53;;;;;;;4.87;2.20;;;6.00;99.90;;;;;;5052571;27;89370;-32
2022/01/31 09:35:19;;;;;;;6.38;2.33;;;6.00;99.90;;;;;;5055420;27;87972;-30
2022/01/31 09:37:45;;;;;;;8.05;2.50;;;6.00;99.90;;;;;;5055388;27;89252;-33
2022/01/31 09:40:16;;;;;;;6.78;2.08;;;6.00;99.90;;;;;;5055129;27;90520;-32
2022/01/31 09:43:22;;;;;;;10.20;2.58;;;6.10;99.90;;;;;;5055896;27;89813;-31
2022/01/31 09:48:38;;;;;;;6.38;1.95;;;6.30;99.90;;;;;;5054403;27;89925;-31
2022/01/31 09:51:12;;;;;;;5.95;1.92;;;6.40;99.90;;;;;;5054552;27;89645;-30
2022/01/31 09:53:39;;;;;;;5.15;2.03;;;6.40;99.90;;;;;;5054984;27;89523;-33
2022/01/31 09:56:10;;;;;;;4.82;2.30;;;6.50;99.90;;;;;;5054647;27;87532;-33
2022/01/31 09:58:38;;;;;;;4.10;1.80;;;6.50;99.90;;;;;;5054444;27;90332;-31
2022/01/31 10:01:05;;;;;;;7.30;2.70;;;6.50;99.90;;;;;;5054620;27;89750;-32
2022/01/31 10:03:30;;;;;;;10.77;2.63;;;6.50;99.90;;;;;;5054894;27;89475;-32
2022/01/31 10:05:57;;;;;;;6.28;2.10;;;6.50;99.90;;;;;;5054356;27;87589;-31
2022/01/31 10:08:29;;;;;;;4.70;1.95;;;6.60;99.90;;;;;;5054752;27;90459;-32
2022/01/31 10:11:00;;;;;;;7.68;2.85;;;6.60;99.90;;;;;;5054039;27;90470;-30
2022/01/31 10:16:29;;;;;;;11.70;2.42;;;6.80;99.90;;;;;;5054414;27;87660;-32
2022/01/31 10:19:24;;;;;;;6.85;2.28;;;6.70;99.90;;;;;;5054559;27;90233;-30
2022/01/31 10:22:05;;;;;;;8.75;2.30;;;6.80;99.90;;;;;;5040485;27;89790;-32
2022/01/31 10:24:31;;;;;;;6.50;1.90;;;6.80;99.90;;;;;;5054458;27;88997;-31
2022/01/31 10:27:06;;;;;;;11.30;2.92;;;6.80;99.90;;;;;;5054224;27;87996;-32
2022/01/31 10:29:31;;;;;;;6.03;1.65;;;6.80;99.90;;;;;;5054653;27;90358;-32
2022/01/31 10:32:05;;;;;;;6.78;2.10;;;6.80;99.90;;;;;;5054068;27;88446;-32
2022/01/31 10:34:34;;;;;;;8.32;2.33;;;6.70;99.90;;;;;;5054209;27;89677;-32
2022/01/31 10:37:02;;;;;;;10.43;2.60;;;6.80;99.90;;;;;;5054125;27;88971;-30
2022/01/31 10:53:44;;;;;;;11.20;2.92;;;7.30;99.90;;;;;;5053785;27;89600;-31
2022/01/31 10:56:10;;;;;;;8.82;2.17;;;7.40;99.90;;;;;;5054032;27;90076;-30
2022/01/31 10:58:56;;;;;;;7.43;2.55;;;7.30;99.90;;;;;;5054288;27;88376;-32
2022/01/31 11:01:23;;;;;;;10.63;2.08;;;7.30;99.90;;;;;;5053895;27;90539;-32
2022/01/31 11:03:49;;;;;;;5.90;1.73;;;7.30;99.90;;;;;;5052967;27;89914;-34
2022/01/31 11:06:14;;;;;;;4.32;1.73;;;7.20;99.90;;;;;;5052172;27;90451;-31
2022/01/31 11:08:40;;;;;;;8.30;2.85;;;7.20;99.90;;;;;;5053990;27;88078;-32
2022/01/31 11:11:06;;;;;;;8.50;1.85;;;7.20;99.90;;;;;;5053694;27;90857;-35
2022/01/31 11:13:37;;;;;;;5.05;2.60;;;7.10;99.90;;;;;;5053101;27;89742;-31
2022/01/31 11:16:04;;;;;;;5.10;1.92;;;7.20;99.90;;;;;;5053288;27;88603;-33
2022/01/31 11:18:32;;;;;;;4.73;2.37;;;7.10;99.90;;;;;;5053826;27;87629;-33
2022/01/31 11:21:08;;;;;;;9.20;2.08;;;7.10;99.90;;;;;;5053767;27;92577;-34
2022/01/31 11:23:41;;;;;;;9.10;2.58;;;7.20;99.90;;;;;;5053222;27;88475;-33
2022/01/31 11:26:10;;;;;;;7.40;2.38;;;7.30;99.90;;;;;;5053558;27;89466;-31
2022/01/31 11:28:36;;;;;;;;;;;7.30;99.90;;;;;;5053585;27;88380;-33
2022/01/31 11:31:02;;;;;;;14.65;3.45;;;7.40;99.90;;;;;;5055002;27;90303;-31
2022/01/31 11:33:29;;;;;;;12.20;2.22;;;7.40;99.90;;;;;;5052976;27;89926;-36
2022/01/31 11:35:55;;;;;;;8.13;2.28;;;7.50;99.90;;;;;;5052765;27;89347;-31
2022/01/31 11:38:21;;;;;;;11.20;2.80;;;7.50;99.90;;;;;;5053527;27;87826;-31
2022/01/31 11:40:47;;;;;;;13.63;2.35;;;7.50;99.90;;;;;;5053051;27;90249;-33
2022/01/31 11:43:15;;;;;;;6.60;2.58;;;7.40;99.90;;;;;;5053574;27;89511;-32
2022/01/31 11:45:42;;;;;;;4.00;1.87;;;7.40;99.90;;;;;;5053529;27;89445;-30
2022/01/31 11:48:23;;;;;;;8.27;2.83;;;7.60;99.90;;;;;;5053082;27;88533;-32
2022/01/31 11:50:54;;;;;;;11.82;3.15;;;7.70;99.90;;;;;;5085230;22;90519;-33
2022/01/31 11:53:28;;;;;;;7.07;2.17;;;7.90;99.90;;;;;;5052455;27;91024;-30
2022/01/31 11:55:58;;;;;;;8.07;2.25;;;8.10;99.90;;;;;;5052375;27;91355;-34
2022/01/31 11:58:24;;;;;;;3.97;1.60;;;8.20;99.90;;;;;;5053018;27;88200;-32
2022/01/31 12:00:51;;;;;;;12.63;3.67;;;8.40;99.90;;;;;;5052803;27;90231;-35
2022/01/31 12:03:18;;;;;;;5.45;2.42;;;8.40;99.90;;;;;;5053068;27;88884;-31
2022/01/31 12:05:44;;;;;;;6.35;2.47;;;8.50;99.90;;;;;;5053162;27;88815;-33
2022/01/31 12:08:22;;;;;;;8.23;2.25;;;8.40;99.90;;;;;;5052847;27;87785;-32
2022/01/31 12:11:07;;;;;;;6.05;2.10;;;8.30;99.90;;;;;;5052887;27;90112;-33
2022/01/31 12:14:00;;;;;;;13.05;3.15;;;8.30;99.90;;;;;;5052310;27;90147;-31
2022/01/31 12:19:34;;;;;;;11.98;2.80;;;8.20;99.90;;;;;;5052969;27;88339;-31
2022/01/31 12:22:04;;;;;;;6.85;2.97;;;8.10;99.90;;;;;;5052608;27;90663;-34
2022/01/31 12:24:32;;;;;;;10.38;2.75;;;8.20;99.90;;;;;;5051962;27;89118;-32
2022/01/31 12:27:05;;;;;;;11.05;2.63;;;8.20;99.90;;;;;;5052466;27;89434;-30
2022/01/31 12:29:33;;;;;;;8.82;3.33;;;8.20;99.90;;;;;;5052835;27;89133;-31
2022/01/31 12:32:16;;;;;;;12.15;3.00;;;8.20;99.90;;;;;;5057430;27;90526;-31
2022/01/31 12:34:49;;;;;;;7.78;3.47;;;8.10;99.90;;;;;;5052344;27;89165;-31
2022/01/31 12:37:32;;;;;;;8.60;2.15;;;8.30;99.90;;;;;;5052598;27;89156;-31
2022/01/31 12:40:03;;;;;;;9.38;2.63;;;8.30;99.90;;;;;;5052158;27;87665;-31
2022/01/31 12:42:50;;;;;;;6.55;2.92;;;8.30;99.90;;;;;;5052112;27;88655;-32
2022/01/31 12:45:31;;;;;;;43.63;19.65;;;8.30;99.90;;;;;;5051789;27;90728;-32
2022/01/31 12:48:06;;;;;;;10.90;3.72;;;8.40;99.90;;;;;;5050998;27;90561;-35
2022/01/31 12:50:33;;;;;;;9.07;3.08;;;8.30;99.90;;;;;;5051558;27;87771;-32
2022/01/31 12:53:04;;;;;;;13.77;3.95;;;8.30;99.90;;;;;;5049634;27;90360;-33
2022/01/31 12:55:30;;;;;;;10.35;3.83;;;8.40;99.90;;;;;;5050207;27;89646;-31
2022/01/31 12:57:56;;;;;;;11.85;4.15;;;8.40;99.90;;;;;;5052117;27;89952;-31
2022/01/31 13:00:38;;;;;;;9.82;3.53;;;8.40;99.90;;;;;;5051823;27;87915;-31
2022/01/31 13:03:05;;;;;;;13.75;8.43;;;8.40;99.90;;;;;;5052347;27;90253;-31
2022/01/31 13:05:35;;;;;;;9.43;4.30;;;8.50;99.90;;;;;;5051910;27;89668;-31
2022/01/31 13:08:16;;;;;;;22.70;4.38;;;8.50;99.90;;;;;;5050953;27;90014;-34
2022/01/31 13:10:42;;;;;;;22.23;3.65;;;8.50;99.90;;;;;;5051969;27;88662;-34
2022/01/31 13:13:08;;;;;;;15.63;4.35;;;8.60;99.90;;;;;;5052058;27;90282;-31
2022/01/31 13:15:33;;;;;;;12.07;3.63;;;8.60;99.90;;;;;;5055150;27;89697;-33
2022/01/31 13:18:07;;;;;;;15.55;3.35;;;8.50;99.90;;;;;;5071594;27;89602;-33
2022/01/31 13:20:37;;;;;;;16.85;3.72;;;8.50;99.90;;;;;;5069988;27;87634;-30
2022/01/31 13:23:04;;;;;;;13.38;3.63;;;8.30;99.90;;;;;;5072008;27;89995;-31